sensor_id;sensor_type;location;lat;lon;timestamp;pressure;altitude;pressure_sealevel;temperature;humidity
70009;BME280;59542;37.950;-122.338;2023-04-19T00:01:22;101640.97;;;18.30;33.03
70009;BME280;59542;37.950;-122.338;2023-04-19T00:03:49;101642.25;;;18.39;33.58
70009;BME280;59542;37.950;-122.338;2023-04-19T00:06:15;101648.50;;;18.39;32.87
70009;BME280;59542;37.950;-122.338;2023-04-19T00:08:42;101647.31;;;18.24;33.67
70009;BME280;59542;37.950;-122.338;2023-04-19T00:11:09;101642.03;;;18.05;34.25
70009;BME280;59542;37.950;-122.338;2023-04-19T00:13:35;101655.22;;;18.02;34.02
70009;BME280;59542;37.950;-122.338;2023-04-19T00:16:01;101654.41;;;17.89;35.11
70009;BME280;59542;37.950;-122.338;2023-04-19T00:18:28;101659.28;;;17.69;33.89
70009;BME280;59542;37.950;-122.338;2023-04-19T00:20:54;101654.97;;;17.80;34.59
70009;BME280;59542;37.950;-122.338;2023-04-19T00:23:21;101649.81;;;17.48;35.31
70009;BME280;59542;37.950;-122.338;2023-04-19T00:25:48;101651.94;;;17.46;35.09
70009;BME280;59542;37.950;-122.338;2023-04-19T00:28:14;101649.97;;;17.53;35.65
70009;BME280;59542;37.950;-122.338;2023-04-19T00:30:41;101651.63;;;17.12;35.06
70009;BME280;59542;37.950;-122.338;2023-04-19T00:33:07;101656.09;;;17.19;35.71
70009;BME280;59542;37.950;-122.338;2023-04-19T00:35:40;101653.75;;;17.10;34.43
70009;BME280;59542;37.950;-122.338;2023-04-19T00:38:07;101652.69;;;17.11;34.94
70009;BME280;59542;37.950;-122.338;2023-04-19T00:40:33;101662.50;;;16.94;34.94
70009;BME280;59542;37.950;-122.338;2023-04-19T00:43:00;101660.91;;;16.86;34.40
70009;BME280;59542;37.950;-122.338;2023-04-19T00:45:27;101678.66;;;16.82;36.00
70009;BME280;59542;37.950;-122.338;2023-04-19T00:47:54;101672.53;;;16.69;35.62
70009;BME280;59542;37.950;-122.338;2023-04-19T00:50:21;101679.44;;;16.46;36.24
70009;BME280;59542;37.950;-122.338;2023-04-19T00:52:47;101666.00;;;16.58;31.93
70009;BME280;59542;37.950;-122.338;2023-04-19T00:55:13;101677.34;;;16.67;32.37
70009;BME280;59542;37.950;-122.338;2023-04-19T00:57:40;101681.63;;;16.56;33.22
70009;BME280;59542;37.950;-122.338;2023-04-19T01:00:07;101682.91;;;16.53;37.55
70009;BME280;59542;37.950;-122.338;2023-04-19T01:02:34;101682.97;;;16.47;36.93
70009;BME280;59542;37.950;-122.338;2023-04-19T01:05:01;101680.75;;;16.44;33.77
70009;BME280;59542;37.950;-122.338;2023-04-19T01:07:28;101692.38;;;16.44;33.25
70009;BME280;59542;37.950;-122.338;2023-04-19T01:09:54;101688.00;;;16.43;33.86
70009;BME280;59542;37.950;-122.338;2023-04-19T01:12:20;101695.31;;;16.18;32.85
70009;BME280;59542;37.950;-122.338;2023-04-19T01:14:48;101693.63;;;15.98;36.06
70009;BME280;59542;37.950;-122.338;2023-04-19T01:17:15;101695.28;;;15.99;35.42
70009;BME280;59542;37.950;-122.338;2023-04-19T01:19:41;101696.47;;;16.03;36.17
70009;BME280;59542;37.950;-122.338;2023-04-19T01:22:08;101701.78;;;16.17;35.26
70009;BME280;59542;37.950;-122.338;2023-04-19T01:24:34;101696.97;;;16.19;35.35
70009;BME280;59542;37.950;-122.338;2023-04-19T01:27:01;101708.16;;;16.22;33.59
70009;BME280;59542;37.950;-122.338;2023-04-19T01:29:28;101710.09;;;16.15;34.34
70009;BME280;59542;37.950;-122.338;2023-04-19T01:31:54;101710.16;;;16.08;34.91
70009;BME280;59542;37.950;-122.338;2023-04-19T01:34:20;101712.69;;;16.03;33.63
70009;BME280;59542;37.950;-122.338;2023-04-19T01:36:49;101716.09;;;15.92;34.11
70009;BME280;59542;37.950;-122.338;2023-04-19T01:39:16;101708.06;;;15.86;31.74
70009;BME280;59542;37.950;-122.338;2023-04-19T01:41:42;101710.09;;;15.58;31.24
70009;BME280;59542;37.950;-122.338;2023-04-19T01:44:08;101713.75;;;15.39;32.52
70009;BME280;59542;37.950;-122.338;2023-04-19T01:46:34;101704.25;;;15.30;32.17
70009;BME280;59542;37.950;-122.338;2023-04-19T01:49:03;101700.81;;;15.10;32.46
70009;BME280;59542;37.950;-122.338;2023-04-19T01:51:29;101706.03;;;15.11;32.92
70009;BME280;59542;37.950;-122.338;2023-04-19T01:53:56;101696.56;;;14.95;34.23
70009;BME280;59542;37.950;-122.338;2023-04-19T01:56:22;101699.28;;;14.82;33.41
70009;BME280;59542;37.950;-122.338;2023-04-19T01:58:49;101697.00;;;14.86;33.10
70009;BME280;59542;37.950;-122.338;2023-04-19T02:01:15;101698.94;;;14.65;33.28
70009;BME280;59542;37.950;-122.338;2023-04-19T02:03:41;101700.84;;;14.51;34.42
70009;BME280;59542;37.950;-122.338;2023-04-19T02:06:11;101704.34;;;14.32;34.22
70009;BME280;59542;37.950;-122.338;2023-04-19T02:08:41;101695.88;;;14.29;33.81
70009;BME280;59542;37.950;-122.338;2023-04-19T02:11:12;101702.69;;;14.31;34.02
70009;BME280;59542;37.950;-122.338;2023-04-19T02:13:41;101706.47;;;14.10;33.80
70009;BME280;59542;37.950;-122.338;2023-04-19T02:16:09;101705.84;;;13.75;34.38
70009;BME280;59542;37.950;-122.338;2023-04-19T02:18:36;101707.09;;;13.86;35.58
70009;BME280;59542;37.950;-122.338;2023-04-19T02:21:04;101719.50;;;13.73;36.27
70009;BME280;59542;37.950;-122.338;2023-04-19T02:23:30;101713.06;;;13.81;36.26
70009;BME280;59542;37.950;-122.338;2023-04-19T02:25:57;101722.38;;;13.59;35.46
70009;BME280;59542;37.950;-122.338;2023-04-19T02:28:23;101716.16;;;13.58;36.11
70009;BME280;59542;37.950;-122.338;2023-04-19T02:30:49;101724.00;;;13.46;36.57
70009;BME280;59542;37.950;-122.338;2023-04-19T02:33:16;101726.47;;;13.41;36.75
70009;BME280;59542;37.950;-122.338;2023-04-19T02:35:43;101723.78;;;13.41;36.65
70009;BME280;59542;37.950;-122.338;2023-04-19T02:38:09;101731.41;;;13.31;36.39
70009;BME280;59542;37.950;-122.338;2023-04-19T02:40:35;101736.56;;;13.26;40.14
70009;BME280;59542;37.950;-122.338;2023-04-19T02:43:02;101738.72;;;13.03;42.68
70009;BME280;59542;37.950;-122.338;2023-04-19T02:45:29;101736.00;;;12.96;44.10
70009;BME280;59542;37.950;-122.338;2023-04-19T02:47:56;101744.72;;;13.05;44.28
70009;BME280;59542;37.950;-122.338;2023-04-19T02:50:23;101751.28;;;12.95;45.87
70009;BME280;59542;37.950;-122.338;2023-04-19T02:52:49;101747.75;;;12.88;47.09
70009;BME280;59542;37.950;-122.338;2023-04-19T02:55:15;101742.75;;;12.79;47.29
70009;BME280;59542;37.950;-122.338;2023-04-19T02:57:42;101754.53;;;12.84;43.68
70009;BME280;59542;37.950;-122.338;2023-04-19T03:00:08;101754.16;;;12.53;42.26
70009;BME280;59542;37.950;-122.338;2023-04-19T03:02:35;101762.25;;;12.31;42.53
70009;BME280;59542;37.950;-122.338;2023-04-19T03:05:02;101762.91;;;12.33;42.61
70009;BME280;59542;37.950;-122.338;2023-04-19T03:07:29;101762.41;;;12.23;43.66
70009;BME280;59542;37.950;-122.338;2023-04-19T03:09:55;101772.38;;;12.29;43.91
70009;BME280;59542;37.950;-122.338;2023-04-19T03:12:21;101770.50;;;12.30;44.06
70009;BME280;59542;37.950;-122.338;2023-04-19T03:14:47;101774.94;;;12.16;44.86
70009;BME280;59542;37.950;-122.338;2023-04-19T03:17:14;101775.78;;;11.95;45.88
70009;BME280;59542;37.950;-122.338;2023-04-19T03:19:41;101784.78;;;12.09;45.06
70009;BME280;59542;37.950;-122.338;2023-04-19T03:22:07;101788.59;;;11.78;45.67
70009;BME280;59542;37.950;-122.338;2023-04-19T03:24:33;101792.81;;;11.66;46.29
70009;BME280;59542;37.950;-122.338;2023-04-19T03:26:59;101791.72;;;11.60;46.26
70009;BME280;59542;37.950;-122.338;2023-04-19T03:29:25;101789.06;;;11.46;45.61
70009;BME280;59542;37.950;-122.338;2023-04-19T03:31:52;101798.88;;;11.39;46.54
70009;BME280;59542;37.950;-122.338;2023-04-19T03:34:18;101794.22;;;11.47;46.50
70009;BME280;59542;37.950;-122.338;2023-04-19T03:36:44;101796.91;;;11.47;47.06
70009;BME280;59542;37.950;-122.338;2023-04-19T03:39:11;101796.38;;;11.37;47.88
70009;BME280;59542;37.950;-122.338;2023-04-19T03:41:39;101789.06;;;11.46;48.00
70009;BME280;59542;37.950;-122.338;2023-04-19T03:44:05;101796.28;;;11.45;47.27
70009;BME280;59542;37.950;-122.338;2023-04-19T03:46:31;101803.34;;;11.17;48.33
70009;BME280;59542;37.950;-122.338;2023-04-19T03:48:58;101809.88;;;11.14;47.93
70009;BME280;59542;37.950;-122.338;2023-04-19T03:51:24;101815.25;;;11.14;49.04
70009;BME280;59542;37.950;-122.338;2023-04-19T03:53:51;101818.75;;;11.15;49.37
70009;BME280;59542;37.950;-122.338;2023-04-19T03:56:18;101820.06;;;11.04;49.40
70009;BME280;59542;37.950;-122.338;2023-04-19T03:58:44;101827.44;;;10.87;50.02
70009;BME280;59542;37.950;-122.338;2023-04-19T04:01:20;101828.56;;;11.07;49.69
70009;BME280;59542;37.950;-122.338;2023-04-19T04:03:47;101836.22;;;10.96;50.16
70009;BME280;59542;37.950;-122.338;2023-04-19T04:06:13;101838.72;;;10.97;50.57
70009;BME280;59542;37.950;-122.338;2023-04-19T04:08:40;101842.41;;;10.96;50.73
70009;BME280;59542;37.950;-122.338;2023-04-19T04:11:06;101842.97;;;11.06;50.76
70009;BME280;59542;37.950;-122.338;2023-04-19T04:13:32;101846.56;;;10.99;51.28
70009;BME280;59542;37.950;-122.338;2023-04-19T04:15:58;101850.53;;;10.73;52.46
70009;BME280;59542;37.950;-122.338;2023-04-19T04:18:25;101863.28;;;10.86;52.13
70009;BME280;59542;37.950;-122.338;2023-04-19T04:20:53;101859.78;;;10.48;53.59
70009;BME280;59542;37.950;-122.338;2023-04-19T04:23:19;101859.72;;;10.56;53.67
70009;BME280;59542;37.950;-122.338;2023-04-19T04:25:46;101866.66;;;10.65;53.61
70009;BME280;59542;37.950;-122.338;2023-04-19T04:28:12;101868.88;;;10.62;54.02
70009;BME280;59542;37.950;-122.338;2023-04-19T04:30:40;101874.34;;;10.68;53.79
70009;BME280;59542;37.950;-122.338;2023-04-19T04:33:06;101876.63;;;10.56;54.19
70009;BME280;59542;37.950;-122.338;2023-04-19T04:35:33;101871.44;;;10.55;54.02
70009;BME280;59542;37.950;-122.338;2023-04-19T04:37:59;101875.88;;;10.63;55.00
70009;BME280;59542;37.950;-122.338;2023-04-19T04:40:28;101874.47;;;10.52;55.50
70009;BME280;59542;37.950;-122.338;2023-04-19T04:42:54;101884.16;;;10.53;55.20
70009;BME280;59542;37.950;-122.338;2023-04-19T04:45:20;101873.84;;;10.50;56.24
70009;BME280;59542;37.950;-122.338;2023-04-19T04:47:47;101883.75;;;10.41;56.71
70009;BME280;59542;37.950;-122.338;2023-04-19T04:50:13;101884.88;;;10.47;57.14
70009;BME280;59542;37.950;-122.338;2023-04-19T04:52:39;101883.13;;;10.39;57.58
70009;BME280;59542;37.950;-122.338;2023-04-19T04:55:06;101877.56;;;10.41;58.33
70009;BME280;59542;37.950;-122.338;2023-04-19T04:57:32;101885.72;;;10.24;58.63
70009;BME280;59542;37.950;-122.338;2023-04-19T04:59:58;101887.06;;;10.20;58.74
70009;BME280;59542;37.950;-122.338;2023-04-19T05:02:24;101890.72;;;10.27;59.11
70009;BME280;59542;37.950;-122.338;2023-04-19T05:04:51;101889.59;;;10.14;59.74
70009;BME280;59542;37.950;-122.338;2023-04-19T05:07:17;101891.94;;;10.17;59.86
70009;BME280;59542;37.950;-122.338;2023-04-19T05:09:43;101883.06;;;10.24;60.31
70009;BME280;59542;37.950;-122.338;2023-04-19T05:12:10;101890.84;;;10.03;61.03
70009;BME280;59542;37.950;-122.338;2023-04-19T05:14:36;101885.91;;;10.15;60.93
70009;BME280;59542;37.950;-122.338;2023-04-19T05:17:02;101889.28;;;10.17;60.60
70009;BME280;59542;37.950;-122.338;2023-04-19T05:19:29;101889.88;;;10.27;60.61
70009;BME280;59542;37.950;-122.338;2023-04-19T05:21:55;101882.03;;;10.25;60.38
70009;BME280;59542;37.950;-122.338;2023-04-19T05:24:21;101890.31;;;10.39;60.44
70009;BME280;59542;37.950;-122.338;2023-04-19T05:26:47;101894.81;;;10.38;60.38
70009;BME280;59542;37.950;-122.338;2023-04-19T05:29:14;101887.22;;;10.50;60.55
70009;BME280;59542;37.950;-122.338;2023-04-19T05:31:40;101894.13;;;10.44;60.63
70009;BME280;59542;37.950;-122.338;2023-04-19T05:34:06;101889.59;;;10.45;60.78
70009;BME280;59542;37.950;-122.338;2023-04-19T05:36:32;101896.06;;;10.50;60.62
70009;BME280;59542;37.950;-122.338;2023-04-19T05:38:59;101890.72;;;10.50;60.59
70009;BME280;59542;37.950;-122.338;2023-04-19T05:41:25;101900.16;;;10.38;61.13
70009;BME280;59542;37.950;-122.338;2023-04-19T05:43:51;101888.69;;;10.52;61.18
70009;BME280;59542;37.950;-122.338;2023-04-19T05:46:18;101889.75;;;10.66;60.88
70009;BME280;59542;37.950;-122.338;2023-04-19T05:48:44;101891.53;;;10.74;60.83
70009;BME280;59542;37.950;-122.338;2023-04-19T05:51:11;101885.91;;;10.83;60.80
70009;BME280;59542;37.950;-122.338;2023-04-19T05:53:38;101889.56;;;10.68;61.08
70009;BME280;59542;37.950;-122.338;2023-04-19T05:56:05;101894.09;;;10.67;61.04
70009;BME280;59542;37.950;-122.338;2023-04-19T05:58:31;101887.63;;;10.62;61.39
70009;BME280;59542;37.950;-122.338;2023-04-19T06:00:57;101883.53;;;10.66;61.05
70009;BME280;59542;37.950;-122.338;2023-04-19T06:03:24;101888.84;;;10.74;60.90
70009;BME280;59542;37.950;-122.338;2023-04-19T06:05:50;101894.38;;;10.72;60.90
70009;BME280;59542;37.950;-122.338;2023-04-19T06:08:16;101896.97;;;10.80;60.56
70009;BME280;59542;37.950;-122.338;2023-04-19T06:10:44;101895.06;;;10.89;60.81
70009;BME280;59542;37.950;-122.338;2023-04-19T06:13:12;101890.81;;;10.95;60.18
70009;BME280;59542;37.950;-122.338;2023-04-19T06:15:39;101892.78;;;11.01;59.61
70009;BME280;59542;37.950;-122.338;2023-04-19T06:18:05;101888.16;;;10.95;59.97
70009;BME280;59542;37.950;-122.338;2023-04-19T06:20:38;101897.47;;;11.14;59.98
70009;BME280;59542;37.950;-122.338;2023-04-19T06:23:07;101889.91;;;11.17;59.44
70009;BME280;59542;37.950;-122.338;2023-04-19T06:25:34;101892.06;;;11.22;59.81
70009;BME280;59542;37.950;-122.338;2023-04-19T06:28:00;101896.47;;;11.29;59.25
70009;BME280;59542;37.950;-122.338;2023-04-19T06:30:27;101892.78;;;11.30;59.71
70009;BME280;59542;37.950;-122.338;2023-04-19T06:32:53;101897.41;;;11.36;59.87
70009;BME280;59542;37.950;-122.338;2023-04-19T06:35:19;101892.69;;;11.39;60.26
70009;BME280;59542;37.950;-122.338;2023-04-19T06:37:45;101889.53;;;11.35;60.71
70009;BME280;59542;37.950;-122.338;2023-04-19T06:40:12;101893.53;;;11.39;60.64
70009;BME280;59542;37.950;-122.338;2023-04-19T06:42:38;101888.44;;;11.44;60.83
70009;BME280;59542;37.950;-122.338;2023-04-19T06:45:04;101898.22;;;11.37;61.30
70009;BME280;59542;37.950;-122.338;2023-04-19T06:47:31;101896.56;;;11.36;61.58
70009;BME280;59542;37.950;-122.338;2023-04-19T06:49:57;101904.53;;;11.44;60.99
70009;BME280;59542;37.950;-122.338;2023-04-19T06:52:23;101896.50;;;11.44;61.71
70009;BME280;59542;37.950;-122.338;2023-04-19T06:54:49;101903.59;;;11.52;60.91
70009;BME280;59542;37.950;-122.338;2023-04-19T06:57:17;101898.84;;;11.54;61.45
70009;BME280;59542;37.950;-122.338;2023-04-19T06:59:43;101902.56;;;11.53;61.28
70009;BME280;59542;37.950;-122.338;2023-04-19T07:02:10;101895.34;;;11.53;61.12
70009;BME280;59542;37.950;-122.338;2023-04-19T07:04:36;101895.25;;;11.47;62.03
70009;BME280;59542;37.950;-122.338;2023-04-19T07:07:03;101901.19;;;11.42;61.85
70009;BME280;59542;37.950;-122.338;2023-04-19T07:09:29;101894.31;;;11.54;61.70
70009;BME280;59542;37.950;-122.338;2023-04-19T07:11:55;101894.53;;;11.53;61.73
70009;BME280;59542;37.950;-122.338;2023-04-19T07:14:22;101895.53;;;11.67;61.46
70009;BME280;59542;37.950;-122.338;2023-04-19T07:16:48;101903.13;;;11.63;61.92
70009;BME280;59542;37.950;-122.338;2023-04-19T07:19:14;101884.25;;;11.56;61.81
70009;BME280;59542;37.950;-122.338;2023-04-19T07:21:43;101886.66;;;11.36;62.57
70009;BME280;59542;37.950;-122.338;2023-04-19T07:24:10;101898.03;;;11.53;61.86
70009;BME280;59542;37.950;-122.338;2023-04-19T07:26:36;101901.00;;;11.58;60.74
70009;BME280;59542;37.950;-122.338;2023-04-19T07:29:02;101902.66;;;11.59;60.27
70009;BME280;59542;37.950;-122.338;2023-04-19T07:31:28;101910.34;;;11.48;61.05
70009;BME280;59542;37.950;-122.338;2023-04-19T07:33:55;101909.03;;;11.44;60.62
70009;BME280;59542;37.950;-122.338;2023-04-19T07:36:21;101911.53;;;11.30;61.48
70009;BME280;59542;37.950;-122.338;2023-04-19T07:38:47;101912.53;;;11.00;62.78
70009;BME280;59542;37.950;-122.338;2023-04-19T07:41:14;101922.16;;;11.24;62.42
70009;BME280;59542;37.950;-122.338;2023-04-19T07:43:40;101917.53;;;11.32;61.89
70009;BME280;59542;37.950;-122.338;2023-04-19T07:46:10;101914.31;;;11.22;62.15
70009;BME280;59542;37.950;-122.338;2023-04-19T07:48:37;101917.53;;;11.32;61.59
70009;BME280;59542;37.950;-122.338;2023-04-19T07:51:11;101913.09;;;11.10;62.73
70009;BME280;59542;37.950;-122.338;2023-04-19T07:53:38;101916.63;;;11.10;62.89
70009;BME280;59542;37.950;-122.338;2023-04-19T07:56:06;101920.41;;;11.31;62.44
70009;BME280;59542;37.950;-122.338;2023-04-19T07:58:34;101913.94;;;11.25;62.53
70009;BME280;59542;37.950;-122.338;2023-04-19T08:01:00;101923.06;;;11.01;63.82
70009;BME280;59542;37.950;-122.338;2023-04-19T08:03:26;101924.34;;;10.91;64.42
70009;BME280;59542;37.950;-122.338;2023-04-19T08:05:53;101924.25;;;10.84;64.99
70009;BME280;59542;37.950;-122.338;2023-04-19T08:08:19;101917.06;;;10.62;65.34
70009;BME280;59542;37.950;-122.338;2023-04-19T08:10:45;101929.25;;;10.64;63.91
70009;BME280;59542;37.950;-122.338;2023-04-19T08:13:11;101915.03;;;10.64;64.05
70009;BME280;59542;37.950;-122.338;2023-04-19T08:15:38;101913.09;;;10.35;64.69
70009;BME280;59542;37.950;-122.338;2023-04-19T08:18:04;101917.00;;;10.47;64.37
70009;BME280;59542;37.950;-122.338;2023-04-19T08:20:31;101918.22;;;10.44;64.07
70009;BME280;59542;37.950;-122.338;2023-04-19T08:22:58;101927.72;;;10.47;64.12
70009;BME280;59542;37.950;-122.338;2023-04-19T08:25:25;101918.25;;;10.36;64.46
70009;BME280;59542;37.950;-122.338;2023-04-19T08:27:53;101914.09;;;10.34;65.09
70009;BME280;59542;37.950;-122.338;2023-04-19T08:30:20;101909.59;;;10.34;64.81
70009;BME280;59542;37.950;-122.338;2023-04-19T08:32:46;101911.47;;;10.25;65.04
70009;BME280;59542;37.950;-122.338;2023-04-19T08:35:13;101921.84;;;10.20;65.03
70009;BME280;59542;37.950;-122.338;2023-04-19T08:37:39;101914.00;;;10.19;65.25
70009;BME280;59542;37.950;-122.338;2023-04-19T08:40:06;101912.13;;;10.27;65.17
70009;BME280;59542;37.950;-122.338;2023-04-19T08:42:32;101918.66;;;10.25;64.91
70009;BME280;59542;37.950;-122.338;2023-04-19T08:45:02;101914.97;;;10.26;65.01
70009;BME280;59542;37.950;-122.338;2023-04-19T08:47:34;101911.06;;;10.37;64.68
70009;BME280;59542;37.950;-122.338;2023-04-19T08:50:02;101918.25;;;10.36;64.44
70009;BME280;59542;37.950;-122.338;2023-04-19T08:52:29;101914.53;;;10.14;64.66
70009;BME280;59542;37.950;-122.338;2023-04-19T08:55:02;101915.22;;;10.08;64.88
70009;BME280;59542;37.950;-122.338;2023-04-19T08:57:30;101913.91;;;10.04;64.79
70009;BME280;59542;37.950;-122.338;2023-04-19T08:59:58;101917.28;;;9.98;64.79
70009;BME280;59542;37.950;-122.338;2023-04-19T09:02:24;101919.13;;;9.97;64.62
70009;BME280;59542;37.950;-122.338;2023-04-19T09:04:51;101920.47;;;9.93;64.76
70009;BME280;59542;37.950;-122.338;2023-04-19T09:07:27;101917.81;;;9.93;64.66
70009;BME280;59542;37.950;-122.338;2023-04-19T09:10:11;101911.56;;;9.78;64.80
70009;BME280;59542;37.950;-122.338;2023-04-19T09:12:39;101917.59;;;9.72;64.81
70009;BME280;59542;37.950;-122.338;2023-04-19T09:15:07;101920.44;;;9.70;64.81
70009;BME280;59542;37.950;-122.338;2023-04-19T09:17:38;101919.34;;;9.57;65.77
70009;BME280;59542;37.950;-122.338;2023-04-19T09:20:05;101917.94;;;9.69;65.49
70009;BME280;59542;37.950;-122.338;2023-04-19T09:22:32;101914.44;;;9.60;65.60
70009;BME280;59542;37.950;-122.338;2023-04-19T09:24:59;101919.66;;;9.53;65.76
70009;BME280;59542;37.950;-122.338;2023-04-19T09:27:32;101922.88;;;9.41;66.22
70009;BME280;59542;37.950;-122.338;2023-04-19T09:30:00;101926.25;;;9.35;66.64
70009;BME280;59542;37.950;-122.338;2023-04-19T09:32:27;101930.25;;;9.39;66.47
70009;BME280;59542;37.950;-122.338;2023-04-19T09:34:58;101926.25;;;9.35;66.40
70009;BME280;59542;37.950;-122.338;2023-04-19T09:37:25;101934.72;;;9.38;66.55
70009;BME280;59542;37.950;-122.338;2023-04-19T09:39:52;101929.25;;;9.40;66.42
70009;BME280;59542;37.950;-122.338;2023-04-19T09:42:18;101931.28;;;9.30;67.03
70009;BME280;59542;37.950;-122.338;2023-04-19T09:44:58;101930.94;;;9.24;67.11
70009;BME280;59542;37.950;-122.338;2023-04-19T09:47:26;101935.47;;;9.16;68.21
70009;BME280;59542;37.950;-122.338;2023-04-19T09:50:08;101943.97;;;9.19;67.96
70009;BME280;59542;37.950;-122.338;2023-04-19T09:52:35;101934.44;;;9.25;67.52
70009;BME280;59542;37.950;-122.338;2023-04-19T09:55:05;101935.78;;;9.29;67.94
70009;BME280;59542;37.950;-122.338;2023-04-19T09:57:33;101930.41;;;9.37;67.20
70009;BME280;59542;37.950;-122.338;2023-04-19T10:00:00;101928.28;;;9.24;67.68
70009;BME280;59542;37.950;-122.338;2023-04-19T10:02:31;101935.59;;;9.31;67.58
70009;BME280;59542;37.950;-122.338;2023-04-19T10:05:00;101938.09;;;9.32;67.70
70009;BME280;59542;37.950;-122.338;2023-04-19T10:07:30;101944.16;;;9.10;68.61
70009;BME280;59542;37.950;-122.338;2023-04-19T10:09:57;101942.50;;;9.17;68.41
70009;BME280;59542;37.950;-122.338;2023-04-19T10:12:25;101942.50;;;9.09;68.48
70009;BME280;59542;37.950;-122.338;2023-04-19T10:14:55;101934.81;;;8.97;69.22
70009;BME280;59542;37.950;-122.338;2023-04-19T10:17:24;101932.34;;;8.96;69.06
70009;BME280;59542;37.950;-122.338;2023-04-19T10:20:00;101938.84;;;9.02;68.92
70009;BME280;59542;37.950;-122.338;2023-04-19T10:22:34;101933.16;;;8.96;68.78
70009;BME280;59542;37.950;-122.338;2023-04-19T10:25:14;101933.66;;;8.92;68.45
70009;BME280;59542;37.950;-122.338;2023-04-19T10:27:42;101936.34;;;8.92;69.04
70009;BME280;59542;37.950;-122.338;2023-04-19T10:30:18;101935.69;;;8.90;68.99
70009;BME280;59542;37.950;-122.338;2023-04-19T10:32:45;101932.00;;;8.83;68.70
70009;BME280;59542;37.950;-122.338;2023-04-19T10:35:25;101933.19;;;8.80;68.57
70009;BME280;59542;37.950;-122.338;2023-04-19T10:38:06;101941.50;;;8.85;68.27
70009;BME280;59542;37.950;-122.338;2023-04-19T10:43:32;101945.03;;;8.78;68.14
70009;BME280;59542;37.950;-122.338;2023-04-19T10:46:12;101943.69;;;8.73;68.16
70009;BME280;59542;37.950;-122.338;2023-04-19T10:48:50;101942.53;;;8.68;67.71
70009;BME280;59542;37.950;-122.338;2023-04-19T10:51:38;101940.66;;;8.60;68.33
70009;BME280;59542;37.950;-122.338;2023-04-19T10:54:28;101944.84;;;8.55;68.54
70009;BME280;59542;37.950;-122.338;2023-04-19T10:59:27;101943.47;;;8.34;69.38
70009;BME280;59542;37.950;-122.338;2023-04-19T11:01:56;101943.59;;;8.33;69.21
70009;BME280;59542;37.950;-122.338;2023-04-19T11:11:52;101959.09;;;8.13;69.17
70009;BME280;59542;37.950;-122.338;2023-04-19T11:14:22;101960.56;;;8.07;69.19
70009;BME280;59542;37.950;-122.338;2023-04-19T11:16:49;101966.94;;;8.23;68.99
70009;BME280;59542;37.950;-122.338;2023-04-19T11:19:18;101964.09;;;7.74;70.37
70009;BME280;59542;37.950;-122.338;2023-04-19T11:21:46;101965.91;;;6.69;74.77
70009;BME280;59542;37.950;-122.338;2023-04-19T11:24:13;101970.78;;;7.18;72.78
70009;BME280;59542;37.950;-122.338;2023-04-19T11:26:44;101973.00;;;7.04;73.32
70009;BME280;59542;37.950;-122.338;2023-04-19T11:29:11;101968.25;;;6.90;73.94
70009;BME280;59542;37.950;-122.338;2023-04-19T11:31:37;101968.75;;;7.11;72.50
70009;BME280;59542;37.950;-122.338;2023-04-19T11:34:03;101969.63;;;6.94;73.82
70009;BME280;59542;37.950;-122.338;2023-04-19T11:36:30;101977.03;;;7.08;72.60
70009;BME280;59542;37.950;-122.338;2023-04-19T11:38:58;101972.16;;;7.04;72.77
70009;BME280;59542;37.950;-122.338;2023-04-19T11:41:24;101969.31;;;7.23;71.86
70009;BME280;59542;37.950;-122.338;2023-04-19T11:43:51;101972.88;;;7.06;72.34
70009;BME280;59542;37.950;-122.338;2023-04-19T11:46:17;101968.03;;;7.09;72.23
70009;BME280;59542;37.950;-122.338;2023-04-19T11:48:51;101968.34;;;6.63;74.10
70009;BME280;59542;37.950;-122.338;2023-04-19T11:51:17;101976.84;;;6.84;73.44
70009;BME280;59542;37.950;-122.338;2023-04-19T11:53:44;101976.16;;;6.82;73.24
70009;BME280;59542;37.950;-122.338;2023-04-19T11:56:10;101980.38;;;6.67;73.76
70009;BME280;59542;37.950;-122.338;2023-04-19T11:58:40;101983.91;;;6.57;74.04
70009;BME280;59542;37.950;-122.338;2023-04-19T12:01:18;101980.94;;;5.88;76.96
70009;BME280;59542;37.950;-122.338;2023-04-19T12:03:50;101988.66;;;5.91;76.89
70009;BME280;59542;37.950;-122.338;2023-04-19T12:06:17;101986.28;;;6.15;75.92
70009;BME280;59542;37.950;-122.338;2023-04-19T12:08:48;101991.56;;;6.25;75.66
70009;BME280;59542;37.950;-122.338;2023-04-19T12:11:17;101998.31;;;6.19;75.58
70009;BME280;59542;37.950;-122.338;2023-04-19T12:14:13;101990.19;;;6.21;75.91
70009;BME280;59542;37.950;-122.338;2023-04-19T12:16:40;101987.91;;;6.26;75.72
70009;BME280;59542;37.950;-122.338;2023-04-19T12:19:14;101994.53;;;5.94;77.09
70009;BME280;59542;37.950;-122.338;2023-04-19T12:21:42;101989.78;;;6.16;76.42
70009;BME280;59542;37.950;-122.338;2023-04-19T12:24:09;101992.44;;;6.16;76.12
70009;BME280;59542;37.950;-122.338;2023-04-19T12:26:41;101994.22;;;5.97;76.74
70009;BME280;59542;37.950;-122.338;2023-04-19T12:29:17;102002.31;;;6.33;75.66
70009;BME280;59542;37.950;-122.338;2023-04-19T12:31:43;102000.03;;;5.83;76.80
70009;BME280;59542;37.950;-122.338;2023-04-19T12:34:09;102008.81;;;5.83;76.83
70009;BME280;59542;37.950;-122.338;2023-04-19T12:36:35;102006.06;;;5.28;79.22
70009;BME280;59542;37.950;-122.338;2023-04-19T12:39:01;102010.13;;;5.13;79.91